Time;durP1;ratioP1;P1;durP2;ratioP2;P2;SDS_P1;SDS_P2;PMS_P1;PMS_P2;Temp;Humidity;BMP_temperature;BMP_pressure;BME280_temperature;BME280_humidity;BME280_pressure;Samples;Min_cycle;Max_cycle;Signal;HPM_P1;HPM_P2
2021/12/06 00:00:56;;;;;;;0.00;0.00;;;1.50;99.90;;;;;;4961457;28;20065;-61
2021/12/06 00:03:47;;;;;;;0.00;0.00;;;1.60;99.90;;;;;;4946619;28;20639;-61
2021/12/06 00:06:15;;;;;;;0.00;0.00;;;1.60;99.90;;;;;;4944944;28;20059;-61
2021/12/06 00:08:41;;;;;;;0.00;0.00;;;1.60;99.90;;;;;;4939775;29;20054;-62
2021/12/06 00:11:07;;;;;;;0.00;0.00;;;1.60;99.90;;;;;;4922561;29;20753;-61
2021/12/06 00:13:38;;;;;;;0.00;0.00;;;1.40;99.90;;;;;;4940936;29;20071;-62
2021/12/06 00:16:08;;;;;;;0.00;0.00;;;1.60;99.90;;;;;;4940863;28;20114;-61
2021/12/06 00:18:35;;;;;;;0.00;0.00;;;2.10;99.90;;;;;;4940113;29;20094;-61
2021/12/06 00:21:03;;;;;;;0.00;0.00;;;1.90;99.90;;;;;;4940653;29;20055;-61
2021/12/06 00:23:29;;;;;;;0.00;0.00;;;1.60;99.90;;;;;;4938837;28;20043;-61
2021/12/06 00:25:55;;;;;;;0.00;0.00;;;1.60;99.90;;;;;;4923411;29;20051;-61
2021/12/06 00:28:22;;;;;;;0.00;0.00;;;1.60;99.90;;;;;;4939779;28;20372;-62
2021/12/06 00:30:47;;;;;;;0.00;0.00;;;1.50;99.90;;;;;;4940205;28;20747;-61
2021/12/06 00:33:13;;;;;;;0.00;0.00;;;1.60;99.90;;;;;;4940614;29;20133;-62
2021/12/06 00:35:39;;;;;;;0.00;0.00;;;1.60;99.90;;;;;;4940744;29;20047;-61
2021/12/06 00:38:04;;;;;;;0.00;0.00;;;1.60;99.90;;;;;;4937121;29;20062;-62
2021/12/06 00:40:35;;;;;;;0.00;0.00;;;1.60;99.90;;;;;;4941118;29;20766;-61
2021/12/06 00:43:01;;;;;;;0.00;0.00;;;1.60;99.90;;;;;;4940781;29;20066;-61
2021/12/06 00:45:27;;;;;;;0.00;0.00;;;1.60;99.90;;;;;;4939559;29;20430;-61
2021/12/06 00:47:53;;;;;;;0.00;0.00;;;1.70;99.90;;;;;;4940127;29;20479;-61
2021/12/06 00:50:21;;;;;;;0.00;0.00;;;1.70;99.90;;;;;;4940348;29;20101;-61
2021/12/06 00:52:48;;;;;;;0.00;0.00;;;1.70;99.90;;;;;;4939955;29;20054;-62
2021/12/06 00:55:14;;;;;;;0.00;0.00;;;2.30;99.90;;;;;;4939197;28;20054;-62
2021/12/06 00:57:40;;;;;;;0.00;0.00;;;1.70;99.90;;;;;;4940252;28;20090;-61
2021/12/06 01:00:12;;;;;;;0.00;0.00;;;1.70;99.90;;;;;;4923237;29;20147;-62
2021/12/06 01:02:37;;;;;;;0.00;0.00;;;1.60;99.90;;;;;;4908845;28;20047;-62
2021/12/06 01:05:04;;;;;;;0.00;0.00;;;1.60;99.90;;;;;;4931665;29;20043;-62
2021/12/06 01:07:30;;;;;;;0.00;0.00;;;1.60;99.90;;;;;;4938400;29;20171;-61
2021/12/06 01:09:56;;;;;;;0.00;0.00;;;1.60;99.90;;;;;;4940150;28;20542;-62
2021/12/06 01:12:21;;;;;;;0.00;0.00;;;1.60;99.90;;;;;;4942949;29;20047;-61
2021/12/06 01:14:47;;;;;;;0.00;0.00;;;1.60;99.90;;;;;;4943588;29;20450;-61
2021/12/06 01:17:13;;;;;;;0.00;0.00;;;1.80;99.90;;;;;;4944029;29;20055;-61
2021/12/06 01:19:39;;;;;;;0.00;0.00;;;1.60;99.90;;;;;;4926727;29;20039;-62
2021/12/06 01:22:24;;;;;;;0.00;0.00;;;0.80;99.90;;;;;;4941973;29;20051;-63
2021/12/06 01:25:01;;;;;;;0.00;0.00;;;2.10;99.90;;;;;;4943874;29;20047;-62
2021/12/06 01:27:47;;;;;;;0.00;0.00;;;1.60;99.90;;;;;;4925828;29;20135;-62
2021/12/06 01:30:28;;;;;;;0.00;0.00;;;1.60;99.90;;;;;;4942407;29;20499;-61
2021/12/06 01:41:03;;;;;;;0.00;0.00;;;1.70;99.90;;;;;;4942318;28;20464;-63
2021/12/06 01:43:29;;;;;;;0.00;0.00;;;1.70;99.90;;;;;;4926101;29;20047;-61
2021/12/06 01:45:55;;;;;;;0.00;0.00;;;1.70;99.90;;;;;;4943395;29;20051;-61
2021/12/06 01:48:21;;;;;;;0.00;0.00;;;1.70;99.90;;;;;;4943269;29;20118;-61
2021/12/06 01:50:47;;;;;;;0.00;0.00;;;1.70;99.90;;;;;;4943191;29;20351;-61
2021/12/06 01:53:12;;;;;;;0.00;0.00;;;1.70;99.90;;;;;;4942164;28;20043;-61
2021/12/06 01:55:39;;;;;;;0.00;0.00;;;1.70;99.90;;;;;;4926316;29;20047;-61
2021/12/06 01:58:07;;;;;;;0.00;0.00;;;1.70;99.90;;;;;;4943136;29;20054;-62
2021/12/06 02:00:39;;;;;;;0.00;0.00;;;1.70;99.90;;;;;;4926036;29;20793;-62
2021/12/06 02:03:05;;;;;;;0.00;0.00;;;1.70;99.90;;;;;;4945679;28;20419;-62
2021/12/06 02:05:32;;;;;;;0.00;0.00;;;1.70;99.90;;;;;;4968518;23;20437;-61
2021/12/06 02:07:59;;;;;;;0.00;0.00;;;;;;;;;;4951413;28;20047;-61
2021/12/06 02:10:26;;;;;;;0.00;0.00;;;1.20;99.90;;;;;;4961648;28;20409;-61
2021/12/06 02:12:54;;;;;;;0.00;0.00;;;1.70;99.90;;;;;;4945518;28;20058;-61
2021/12/06 02:15:35;;;;;;;0.00;0.00;;;1.70;99.90;;;;;;4944817;28;20089;-61
2021/12/06 02:18:08;;;;;;;0.00;0.00;;;1.70;99.90;;;;;;4962758;28;20051;-61
2021/12/06 02:20:46;;;;;;;0.00;0.00;;;1.70;99.90;;;;;;4977532;28;20092;-61
2021/12/06 02:23:12;;;;;;;0.00;0.00;;;1.70;99.90;;;;;;4959487;28;20051;-61
2021/12/06 02:25:37;;;;;;;0.00;0.00;;;1.80;99.90;;;;;;4962673;28;20080;-61
2021/12/06 02:28:04;;;;;;;0.00;0.00;;;1.80;99.90;;;;;;4962060;28;20046;-61
2021/12/06 02:30:29;;;;;;;0.00;0.00;;;1.80;99.90;;;;;;4961758;28;20070;-61
2021/12/06 02:32:55;;;;;;;0.00;0.00;;;1.80;99.90;;;;;;4944383;28;20101;-61
2021/12/06 02:35:23;;;;;;;0.00;0.00;;;1.80;99.90;;;;;;4962163;28;20058;-61
2021/12/06 02:37:52;;;;;;;0.00;0.00;;;2.10;99.90;;;;;;4961266;28;20089;-61
2021/12/06 02:40:30;;;;;;;0.00;0.00;;;1.70;99.90;;;;;;4943549;28;20051;-60
2021/12/06 02:42:57;;;;;;;0.00;0.00;;;1.80;99.90;;;;;;4961964;28;20047;-61
2021/12/06 02:45:25;;;;;;;0.00;0.00;;;1.70;99.90;;;;;;4961504;28;20508;-61
2021/12/06 02:47:53;;;;;;;0.00;0.00;;;1.70;99.90;;;;;;4959472;28;20174;-61
2021/12/06 02:50:23;;;;;;;0.00;0.00;;;1.70;99.90;;;;;;4961838;28;20051;-61
2021/12/06 02:52:49;;;;;;;0.00;0.00;;;1.70;99.90;;;;;;4976004;28;20501;-61
2021/12/06 02:55:31;;;;;;;0.00;0.00;;;1.70;99.90;;;;;;4960385;28;20070;-61
2021/12/06 02:58:32;;;;;;;0.00;0.00;;;1.70;99.90;;;;;;4961342;28;20102;-61
2021/12/06 03:01:00;;;;;;;0.00;0.00;;;1.70;99.90;;;;;;4944669;28;20480;-61
2021/12/06 03:03:26;;;;;;;0.00;0.00;;;1.70;99.90;;;;;;4968448;28;20557;-61
2021/12/06 03:05:52;;;;;;;0.00;0.00;;;1.70;99.90;;;;;;4961181;28;20158;-61
2021/12/06 03:08:42;;;;;;;0.00;0.00;;;1.70;99.90;;;;;;4960198;28;20066;-61
2021/12/06 03:11:19;;;;;;;0.00;0.00;;;1.70;99.90;;;;;;4944282;28;20141;-61
2021/12/06 03:13:45;;;;;;;0.00;0.00;;;1.70;99.90;;;;;;4944133;28;20227;-61
2021/12/06 03:16:11;;;;;;;0.00;0.00;;;1.70;99.90;;;;;;4961499;28;20050;-61
2021/12/06 03:18:37;;;;;;;0.00;0.00;;;1.80;99.90;;;;;;4961031;28;20062;-61
2021/12/06 03:21:03;;;;;;;0.00;0.00;;;1.70;99.90;;;;;;4943011;28;20445;-62
2021/12/06 03:23:30;;;;;;;0.00;0.00;;;1.70;99.90;;;;;;4961011;28;20457;-60
2021/12/06 03:25:55;;;;;;;0.00;0.00;;;1.70;99.90;;;;;;4960985;28;20051;-61
2021/12/06 03:28:21;;;;;;;0.10;0.10;;;1.70;99.90;;;;;;4961129;28;20584;-61
2021/12/06 03:30:47;;;;;;;0.00;0.00;;;2.10;99.90;;;;;;4942593;28;20046;-61
2021/12/06 03:33:13;;;;;;;0.00;0.00;;;1.70;99.90;;;;;;4960820;28;20047;-61
2021/12/06 03:35:39;;;;;;;0.00;0.00;;;1.70;99.90;;;;;;4961065;28;20058;-61
2021/12/06 03:38:04;;;;;;;0.00;0.00;;;1.70;99.90;;;;;;4942286;28;20536;-61
2021/12/06 03:40:30;;;;;;;0.00;0.00;;;1.70;99.90;;;;;;4961232;28;20046;-60
2021/12/06 03:42:56;;;;;;;0.00;0.00;;;1.70;99.90;;;;;;4959342;28;20042;-61
2021/12/06 03:45:22;;;;;;;0.00;0.00;;;1.70;99.90;;;;;;4960969;28;20323;-61
2021/12/06 03:47:48;;;;;;;0.00;0.00;;;1.70;99.90;;;;;;4959674;28;20461;-60
2021/12/06 03:50:14;;;;;;;0.00;0.00;;;1.70;99.90;;;;;;4943065;28;20078;-60
2021/12/06 03:52:40;;;;;;;0.00;0.00;;;1.70;99.90;;;;;;4942701;28;20536;-61
2021/12/06 03:55:08;;;;;;;0.00;0.00;;;1.70;99.90;;;;;;4960689;28;20042;-61
2021/12/06 03:57:34;;;;;;;0.00;0.00;;;1.70;99.90;;;;;;4942510;28;20057;-62
2021/12/06 03:59:59;;;;;;;0.00;0.00;;;1.70;99.90;;;;;;4960906;28;20034;-61
2021/12/06 04:02:29;;;;;;;0.00;0.00;;;1.70;99.90;;;;;;4960205;28;20042;-61
2021/12/06 04:04:56;;;;;;;0.00;0.00;;;1.70;99.90;;;;;;4957867;28;20741;-61
2021/12/06 04:07:23;;;;;;;0.00;0.00;;;1.70;99.90;;;;;;4959190;28;20120;-63
2021/12/06 04:09:49;;;;;;;0.00;0.00;;;1.80;99.90;;;;;;4960192;28;20043;-63
2021/12/06 04:12:16;;;;;;;0.00;0.00;;;1.80;99.90;;;;;;4960621;28;20417;-64
2021/12/06 04:14:42;;;;;;;0.00;0.00;;;1.30;99.90;;;;;;4959278;28;20064;-64
2021/12/06 04:17:08;;;;;;;0.00;0.00;;;1.70;99.90;;;;;;4960073;28;20624;-64
2021/12/06 04:19:34;;;;;;;0.00;0.00;;;1.70;99.90;;;;;;4960594;28;20090;-65
2021/12/06 04:21:59;;;;;;;0.00;0.00;;;1.70;99.90;;;;;;4959593;28;20050;-63
2021/12/06 04:24:25;;;;;;;0.00;0.00;;;1.80;99.90;;;;;;4941863;28;20058;-63
2021/12/06 04:26:51;;;;;;;0.00;0.00;;;1.70;99.90;;;;;;4960322;28;20126;-64
2021/12/06 04:29:17;;;;;;;0.00;0.00;;;1.80;99.90;;;;;;4960032;28;20078;-64
2021/12/06 04:31:47;;;;;;;0.00;0.00;;;1.80;99.90;;;;;;4958862;28;20499;-64
2021/12/06 04:34:13;;;;;;;0.00;0.00;;;1.80;99.90;;;;;;4942569;28;20101;-64
2021/12/06 04:36:41;;;;;;;0.00;0.00;;;2.50;99.90;;;;;;4942481;28;20792;-64
2021/12/06 04:39:09;;;;;;;0.00;0.00;;;1.80;99.90;;;;;;4960045;28;20088;-64
2021/12/06 04:41:35;;;;;;;0.00;0.00;;;1.80;99.90;;;;;;4941949;28;20089;-63
2021/12/06 04:44:01;;;;;;;0.00;0.00;;;1.80;99.90;;;;;;4960020;28;20069;-63
2021/12/06 04:46:27;;;;;;;0.00;0.00;;;1.80;99.90;;;;;;4959413;28;20062;-64
2021/12/06 04:48:53;;;;;;;0.00;0.00;;;1.80;99.90;;;;;;4959225;28;20556;-63
2021/12/06 04:51:18;;;;;;;0.10;0.10;;;1.80;99.90;;;;;;4958173;28;20051;-63
2021/12/06 04:53:44;;;;;;;0.00;0.00;;;1.80;99.90;;;;;;4959765;28;20043;-64
2021/12/06 04:56:10;;;;;;;0.00;0.00;;;1.80;99.90;;;;;;4942409;28;20089;-64
2021/12/06 04:58:44;;;;;;;0.00;0.00;;;1.80;99.90;;;;;;4957672;28;20553;-64
2021/12/06 05:01:15;;;;;;;0.00;0.00;;;1.80;99.90;;;;;;4941953;28;20051;-64
2021/12/06 05:03:41;;;;;;;0.00;0.00;;;1.80;99.90;;;;;;4958754;28;20097;-65
2021/12/06 05:06:12;;;;;;;0.00;0.00;;;1.80;99.90;;;;;;4958068;28;20054;-64
2021/12/06 05:08:42;;;;;;;0.00;0.00;;;1.80;99.90;;;;;;4960139;28;20154;-64
2021/12/06 05:11:09;;;;;;;0.00;0.00;;;1.80;99.90;;;;;;4942266;28;20141;-64
2021/12/06 05:13:38;;;;;;;0.00;0.00;;;1.80;99.90;;;;;;4959002;28;20039;-64
2021/12/06 05:16:03;;;;;;;0.00;0.00;;;1.90;99.90;;;;;;4941814;28;20059;-64
2021/12/06 05:18:29;;;;;;;0.00;0.00;;;1.90;99.90;;;;;;4960173;28;20172;-64
2021/12/06 05:20:55;;;;;;;0.00;0.00;;;1.80;99.90;;;;;;4959664;28;20059;-63
2021/12/06 05:23:21;;;;;;;0.00;0.00;;;1.80;99.90;;;;;;4940391;28;20693;-63
2021/12/06 05:25:47;;;;;;;0.00;0.00;;;1.80;99.90;;;;;;4942203;28;20056;-64
2021/12/06 05:28:13;;;;;;;0.00;0.00;;;1.80;99.90;;;;;;4942753;28;20043;-63
2021/12/06 05:30:42;;;;;;;0.00;0.00;;;1.80;99.90;;;;;;4959228;28;20046;-64
2021/12/06 05:33:10;;;;;;;0.00;0.00;;;1.80;99.90;;;;;;4940988;28;20498;-62
2021/12/06 05:35:36;;;;;;;0.00;0.00;;;1.80;99.90;;;;;;4942239;28;20070;-62
2021/12/06 05:38:02;;;;;;;0.00;0.00;;;1.90;99.90;;;;;;4942043;28;20196;-61
2021/12/06 05:40:33;;;;;;;0.00;0.00;;;2.40;99.90;;;;;;4941777;28;20063;-61
2021/12/06 05:43:00;;;;;;;0.00;0.00;;;1.90;99.90;;;;;;4941779;28;20109;-61
2021/12/06 05:45:28;;;;;;;0.00;0.00;;;2.50;99.90;;;;;;4941890;28;20047;-64
2021/12/06 05:47:55;;;;;;;0.00;0.00;;;1.90;99.90;;;;;;4941725;28;20046;-62
2021/12/06 05:50:23;;;;;;;0.00;0.00;;;1.90;99.90;;;;;;4941898;28;20053;-61
2021/12/06 05:52:52;;;;;;;0.00;0.00;;;1.90;99.90;;;;;;4956952;28;20051;-62
2021/12/06 05:55:19;;;;;;;0.00;0.00;;;1.90;99.90;;;;;;4958810;28;20066;-62
2021/12/06 05:57:45;;;;;;;0.00;0.00;;;1.90;99.90;;;;;;4959166;28;20054;-62
2021/12/06 06:00:14;;;;;;;0.00;0.00;;;1.80;99.90;;;;;;4963117;28;20039;-62
2021/12/06 06:02:41;;;;;;;0.00;0.00;;;2.10;99.90;;;;;;4944678;28;20057;-62
2021/12/06 06:05:07;;;;;;;0.00;0.00;;;1.90;99.90;;;;;;4932812;29;20136;-62
2021/12/06 06:07:33;;;;;;;0.00;0.00;;;2.00;99.90;;;;;;4942532;29;20061;-63
2021/12/06 06:09:59;;;;;;;0.00;0.00;;;1.90;99.90;;;;;;4926314;29;20055;-62
2021/12/06 06:12:24;;;;;;;0.00;0.00;;;1.90;99.90;;;;;;4925722;29;20099;-63
2021/12/06 06:14:50;;;;;;;0.00;0.00;;;2.00;99.90;;;;;;4942310;29;20501;-62
2021/12/06 06:17:19;;;;;;;0.00;0.00;;;1.90;99.90;;;;;;4926110;29;20497;-62
2021/12/06 06:20:03;;;;;;;0.00;0.00;;;2.00;99.90;;;;;;4926174;29;20114;-63
2021/12/06 06:22:28;;;;;;;0.00;0.00;;;2.00;99.90;;;;;;4924718;29;20087;-62
2021/12/06 06:24:54;;;;;;;0.00;0.00;;;2.00;99.90;;;;;;4943048;29;20521;-62
2021/12/06 06:27:20;;;;;;;0.00;0.00;;;2.00;99.90;;;;;;4942919;29;20498;-62
2021/12/06 06:29:45;;;;;;;0.00;0.00;;;2.00;99.90;;;;;;4924385;29;20301;-62
2021/12/06 06:32:11;;;;;;;0.00;0.00;;;2.30;99.90;;;;;;4941367;29;20051;-62
2021/12/06 06:34:37;;;;;;;0.00;0.00;;;2.00;99.90;;;;;;4925499;29;20580;-62
2021/12/06 06:37:03;;;;;;;0.00;0.00;;;1.90;99.90;;;;;;4941723;29;20409;-63
2021/12/06 06:39:29;;;;;;;0.00;0.00;;;1.90;99.90;;;;;;4942505;29;20102;-62
2021/12/06 06:41:55;;;;;;;0.00;0.00;;;1.90;99.90;;;;;;4942672;29;20490;-63
2021/12/06 06:44:21;;;;;;;0.00;0.00;;;1.90;99.90;;;;;;4942095;29;20090;-63
2021/12/06 06:46:48;;;;;;;0.00;0.00;;;1.90;99.90;;;;;;4942341;29;20094;-61
2021/12/06 06:49:15;;;;;;;0.00;0.00;;;1.90;99.90;;;;;;4941609;29;20151;-62
2021/12/06 06:51:43;;;;;;;0.00;0.00;;;1.90;99.90;;;;;;4940032;29;20051;-63
2021/12/06 06:54:09;;;;;;;0.00;0.00;;;1.90;99.90;;;;;;4941874;29;20044;-61
2021/12/06 06:56:35;;;;;;;0.00;0.00;;;1.80;99.90;;;;;;4908685;29;20057;-62
2021/12/06 06:59:01;;;;;;;0.00;0.00;;;1.80;99.90;;;;;;4942638;29;20945;-61
2021/12/06 07:01:26;;;;;;;0.00;0.00;;;1.80;99.90;;;;;;4941863;29;20502;-61
2021/12/06 07:03:54;;;;;;;0.00;0.00;;;1.80;99.90;;;;;;4932551;28;20751;-62
2021/12/06 07:06:24;;;;;;;0.00;0.00;;;1.80;99.90;;;;;;4942137;28;20065;-61
2021/12/06 07:08:51;;;;;;;0.52;0.52;;;1.80;99.90;;;;;;4943634;28;20059;-62
2021/12/06 07:11:17;;;;;;;0.00;0.00;;;1.70;99.90;;;;;;4959499;28;20065;-61
2021/12/06 07:13:46;;;;;;;0.00;0.00;;;1.80;99.90;;;;;;4960587;28;20078;-61
2021/12/06 07:16:11;;;;;;;0.10;0.10;;;1.80;99.90;;;;;;4961171;28;20086;-61
2021/12/06 07:18:37;;;;;;;0.10;0.10;;;1.70;99.90;;;;;;4961251;28;20075;-61
2021/12/06 07:21:04;;;;;;;0.00;0.00;;;1.70;99.90;;;;;;4959910;28;20149;-62
2021/12/06 07:23:29;;;;;;;0.70;0.70;;;1.70;99.90;;;;;;4961258;28;20626;-61
2021/12/06 07:25:55;;;;;;;0.00;0.00;;;2.10;99.90;;;;;;4960941;28;20050;-63
2021/12/06 07:28:21;;;;;;;0.10;0.10;;;1.70;99.90;;;;;;4960819;28;20039;-61
2021/12/06 07:30:47;;;;;;;0.00;0.00;;;1.70;99.90;;;;;;4943345;28;20051;-63
2021/12/06 07:33:12;;;;;;;0.00;0.00;;;1.60;99.90;;;;;;4942670;28;20054;-64
2021/12/06 07:35:38;;;;;;;0.15;0.15;;;1.60;99.90;;;;;;4960549;28;20089;-62
2021/12/06 07:38:07;;;;;;;0.00;0.00;;;1.60;99.90;;;;;;4942651;28;20513;-62
2021/12/06 07:40:33;;;;;;;0.00;0.00;;;1.60;99.90;;;;;;4961100;28;20445;-65
2021/12/06 07:42:59;;;;;;;0.00;0.00;;;1.70;99.90;;;;;;4943400;28;20041;-61
2021/12/06 07:45:25;;;;;;;0.00;0.00;;;1.70;99.90;;;;;;4942783;28;20077;-61
2021/12/06 07:47:50;;;;;;;0.00;0.00;;;1.80;99.90;;;;;;4943075;28;20043;-61
2021/12/06 07:50:18;;;;;;;0.10;0.10;;;1.70;99.90;;;;;;4942008;28;20138;-61
2021/12/06 07:52:44;;;;;;;1.65;1.55;;;1.60;99.90;;;;;;4942076;28;20063;-61
2021/12/06 07:55:13;;;;;;;0.00;0.00;;;1.60;99.90;;;;;;4960545;28;20524;-61
2021/12/06 07:57:39;;;;;;;0.00;0.00;;;1.70;99.90;;;;;;4943118;28;20050;-61
2021/12/06 08:00:11;;;;;;;0.52;0.52;;;1.70;99.90;;;;;;4941754;28;20043;-62
2021/12/06 08:02:37;;;;;;;0.00;0.00;;;1.70;99.90;;;;;;4959842;28;20050;-62
2021/12/06 08:07:49;;;;;;;0.00;0.00;;;1.80;99.90;;;;;;4958701;28;20049;-62
2021/12/06 08:10:15;;;;;;;0.00;0.00;;;1.80;99.90;;;;;;4940936;28;20121;-63
2021/12/06 08:12:42;;;;;;;0.00;0.00;;;1.70;99.90;;;;;;4942530;28;20046;-64
2021/12/06 08:15:08;;;;;;;0.35;0.35;;;1.80;99.90;;;;;;4959310;28;20509;-63
2021/12/06 08:17:34;;;;;;;0.00;0.00;;;1.70;99.90;;;;;;4960399;28;20047;-63
2021/12/06 08:20:00;;;;;;;0.00;0.00;;;2.90;99.90;;;;;;4959519;28;20069;-62
2021/12/06 08:22:25;;;;;;;0.00;0.00;;;1.70;99.90;;;;;;4941519;28;20510;-62
2021/12/06 08:24:51;;;;;;;0.00;0.00;;;1.50;99.90;;;;;;4942653;28;20490;-63
2021/12/06 08:27:17;;;;;;;0.00;0.00;;;1.70;99.90;;;;;;4942317;28;20703;-64
2021/12/06 08:29:43;;;;;;;0.00;0.00;;;1.70;99.90;;;;;;4960208;28;20043;-63
2021/12/06 08:32:10;;;;;;;0.00;0.00;;;1.80;99.90;;;;;;4941527;28;20065;-63
2021/12/06 08:34:41;;;;;;;0.00;0.00;;;1.70;99.90;;;;;;4959176;28;20485;-63
2021/12/06 08:37:07;;;;;;;0.00;0.00;;;;;;;;;;4958409;28;20047;-64
2021/12/06 08:39:33;;;;;;;0.55;0.55;;;;;;;;;;4959741;28;20130;-64
2021/12/06 08:41:59;;;;;;;0.00;0.00;;;;;;;;;;4941615;28;20046;-63
2021/12/06 08:44:25;;;;;;;0.00;0.00;;;;;;;;;;4941307;28;20050;-64
2021/12/06 08:46:51;;;;;;;2.00;1.85;;;;;;;;;;4959599;28;20101;-63
2021/12/06 08:49:16;;;;;;;0.95;0.95;;;1.80;99.90;;;;;;4941414;28;20043;-63
2021/12/06 08:51:46;;;;;;;0.00;0.00;;;1.90;99.90;;;;;;4958441;28;20733;-63
2021/12/06 08:54:14;;;;;;;0.00;0.00;;;1.80;99.90;;;;;;4941911;28;20121;-63
2021/12/06 08:56:40;;;;;;;0.00;0.00;;;2.10;99.90;;;;;;4942215;28;20055;-63
2021/12/06 08:59:07;;;;;;;0.00;0.00;;;1.70;99.90;;;;;;4958980;28;20864;-64
2021/12/06 09:01:35;;;;;;;0.03;0.03;;;1.60;99.90;;;;;;4942392;28;20130;-64
2021/12/06 09:04:01;;;;;;;2.08;1.65;;;1.60;99.90;;;;;;4958835;28;20139;-63
2021/12/06 09:06:27;;;;;;;0.10;0.10;;;1.60;99.90;;;;;;4940301;28;20062;-65
2021/12/06 09:08:55;;;;;;;0.00;0.00;;;1.60;99.90;;;;;;4942312;28;20068;-63
2021/12/06 09:11:21;;;;;;;0.00;0.00;;;1.60;99.90;;;;;;4941787;28;20181;-63
2021/12/06 09:13:47;;;;;;;0.00;0.00;;;1.70;99.90;;;;;;4926464;28;20406;-63
2021/12/06 09:16:13;;;;;;;0.00;0.00;;;1.70;99.90;;;;;;4941724;28;20047;-63
2021/12/06 09:18:41;;;;;;;0.00;0.00;;;1.70;99.90;;;;;;4942081;28;20051;-64
2021/12/06 09:21:11;;;;;;;0.00;0.00;;;1.70;99.90;;;;;;4940667;28;20512;-64
2021/12/06 09:23:37;;;;;;;0.00;0.00;;;1.70;99.90;;;;;;4955822;28;20038;-64
2021/12/06 09:26:03;;;;;;;1.23;1.17;;;1.70;99.90;;;;;;4958736;28;20039;-65
2021/12/06 09:28:31;;;;;;;0.00;0.00;;;1.80;99.90;;;;;;4942147;28;20042;-65
2021/12/06 09:30:57;;;;;;;2.45;1.10;;;1.80;99.90;;;;;;4941057;28;20051;-63
2021/12/06 09:33:24;;;;;;;0.80;0.52;;;1.80;99.90;;;;;;4962205;28;20421;-63
2021/12/06 09:35:50;;;;;;;3.42;1.75;;;1.80;99.90;;;;;;4944331;28;20050;-64
2021/12/06 09:38:22;;;;;;;0.00;0.00;;;2.00;99.90;;;;;;4962671;28;20421;-64
2021/12/06 09:40:51;;;;;;;0.00;0.00;;;1.80;99.90;;;;;;4944055;28;20047;-62
2021/12/06 09:43:17;;;;;;;0.00;0.00;;;2.30;99.90;;;;;;4962291;28;20057;-63
2021/12/06 09:45:44;;;;;;;0.00;0.00;;;1.80;99.90;;;;;;4962906;28;20043;-63
2021/12/06 09:48:12;;;;;;;0.85;0.85;;;1.80;99.90;;;;;;4962868;28;20197;-63
2021/12/06 09:50:55;;;;;;;0.17;0.17;;;1.80;99.90;;;;;;4943762;28;20062;-62
2021/12/06 09:53:29;;;;;;;0.00;0.00;;;1.80;99.90;;;;;;4962747;28;20054;-62
2021/12/06 09:55:59;;;;;;;0.10;0.10;;;1.90;99.90;;;;;;4944127;28;20442;-63
2021/12/06 09:58:25;;;;;;;0.00;0.00;;;1.90;99.90;;;;;;4945185;28;20402;-64
2021/12/06 10:00:56;;;;;;;0.00;0.00;;;1.90;99.90;;;;;;4962412;28;20050;-64
2021/12/06 10:03:26;;;;;;;0.00;0.00;;;1.90;99.90;;;;;;4961025;28;20050;-64
2021/12/06 10:05:53;;;;;;;0.00;0.00;;;1.90;99.90;;;;;;4944106;28;20065;-64
2021/12/06 10:08:19;;;;;;;0.10;0.10;;;1.80;99.90;;;;;;4961921;28;20046;-63
2021/12/06 10:10:46;;;;;;;0.20;0.20;;;1.80;99.90;;;;;;4962286;28;20051;-63
2021/12/06 10:13:12;;;;;;;0.52;0.52;;;1.80;99.90;;;;;;4962066;28;20039;-63
2021/12/06 10:15:38;;;;;;;0.00;0.00;;;1.80;99.90;;;;;;4944815;28;20058;-63
2021/12/06 10:18:04;;;;;;;0.22;0.20;;;2.20;99.90;;;;;;4961838;28;20058;-64
2021/12/06 10:20:31;;;;;;;0.00;0.00;;;1.90;99.90;;;;;;4961189;28;20050;-63
2021/12/06 10:22:58;;;;;;;0.00;0.00;;;1.90;99.90;;;;;;4962022;28;20165;-63
2021/12/06 10:25:42;;;;;;;0.00;0.00;;;2.00;99.90;;;;;;4960499;28;20054;-63
2021/12/06 10:28:08;;;;;;;0.00;0.00;;;2.00;99.90;;;;;;4927848;28;20402;-62
2021/12/06 10:30:38;;;;;;;0.00;0.00;;;1.90;99.90;;;;;;4962062;28;20046;-65
2021/12/06 10:33:10;;;;;;;0.00;0.00;;;1.90;99.90;;;;;;4944443;28;20054;-65
2021/12/06 10:35:47;;;;;;;0.00;0.00;;;1.80;99.90;;;;;;4943333;28;20409;-65
2021/12/06 10:38:21;;;;;;;0.00;0.00;;;1.90;99.90;;;;;;4944712;28;20042;-64
2021/12/06 10:40:47;;;;;;;0.00;0.00;;;1.90;99.90;;;;;;4944616;28;20047;-64
2021/12/06 10:43:13;;;;;;;0.00;0.00;;;1.90;99.90;;;;;;4942874;28;20043;-64
2021/12/06 10:45:43;;;;;;;0.80;0.77;;;2.60;99.90;;;;;;4962073;28;20469;-64
2021/12/06 10:48:14;;;;;;;0.40;0.40;;;1.80;99.90;;;;;;4944340;28;20042;-64
2021/12/06 10:50:52;;;;;;;0.00;0.00;;;1.90;99.90;;;;;;4942903;28;20079;-64
2021/12/06 10:53:21;;;;;;;0.00;0.00;;;2.40;99.90;;;;;;4961070;28;20059;-65
2021/12/06 10:55:51;;;;;;;1.48;1.38;;;1.90;99.90;;;;;;4961142;28;20045;-64
2021/12/06 10:58:20;;;;;;;0.00;0.00;;;2.00;99.90;;;;;;4960920;28;20069;-63
2021/12/06 11:01:00;;;;;;;0.00;0.00;;;1.90;99.90;;;;;;4961152;28;20039;-63
2021/12/06 11:03:40;;;;;;;0.00;0.00;;;1.80;99.90;;;;;;4940141;28;20181;-63
2021/12/06 11:06:21;;;;;;;0.47;0.47;;;1.80;99.90;;;;;;4959289;28;20062;-64
2021/12/06 11:08:49;;;;;;;0.00;0.00;;;1.80;99.90;;;;;;4942904;28;20501;-63
2021/12/06 11:11:29;;;;;;;0.20;0.20;;;1.70;99.90;;;;;;4961113;28;20379;-63
2021/12/06 11:14:05;;;;;;;0.43;0.43;;;1.60;99.90;;;;;;4943278;28;20109;-64
2021/12/06 11:16:39;;;;;;;0.10;0.10;;;1.60;99.90;;;;;;4943714;28;20085;-64
2021/12/06 11:19:10;;;;;;;0.20;0.15;;;1.60;99.90;;;;;;4955021;28;20125;-65
2021/12/06 11:21:43;;;;;;;0.00;0.00;;;1.60;99.90;;;;;;4959653;28;20461;-63
2021/12/06 11:24:25;;;;;;;0.00;0.00;;;1.70;99.90;;;;;;4951093;28;20840;-63
2021/12/06 11:26:55;;;;;;;0.00;0.00;;;1.80;99.90;;;;;;4979569;28;20040;-63
2021/12/06 11:29:22;;;;;;;0.00;0.00;;;1.80;99.90;;;;;;4979208;28;20053;-63
2021/12/06 11:31:52;;;;;;;0.13;0.13;;;1.80;99.90;;;;;;4958013;28;20436;-64
2021/12/06 11:34:18;;;;;;;0.20;0.20;;;1.80;99.90;;;;;;4960232;28;20067;-63
2021/12/06 11:36:44;;;;;;;0.00;0.00;;;1.70;99.90;;;;;;4935612;28;20042;-63
2021/12/06 11:39:15;;;;;;;0.20;0.20;;;1.70;99.90;;;;;;4960334;28;20552;-63
2021/12/06 11:41:44;;;;;;;8.73;3.33;;;1.70;99.90;;;;;;4943438;28;20462;-65
2021/12/06 11:44:31;;;;;;;0.00;0.00;;;1.80;99.90;;;;;;4977626;28;20054;-63
2021/12/06 11:47:06;;;;;;;3.00;1.25;;;1.80;99.90;;;;;;4961762;28;20058;-63
2021/12/06 11:49:36;;;;;;;0.05;0.05;;;1.80;99.90;;;;;;4963222;28;20353;-63
2021/12/06 11:52:05;;;;;;;0.00;0.00;;;1.80;99.90;;;;;;4960477;28;20050;-65
2021/12/06 11:54:39;;;;;;;0.05;0.05;;;1.80;99.90;;;;;;4959676;28;20701;-63
2021/12/06 11:57:11;;;;;;;0.00;0.00;;;1.90;99.90;;;;;;4941757;28;20100;-64
2021/12/06 11:59:45;;;;;;;0.47;0.47;;;0.90;99.90;;;;;;4942552;28;20051;-63
2021/12/06 12:02:11;;;;;;;0.00;0.00;;;1.80;99.90;;;;;;4959731;28;20046;-64
2021/12/06 12:04:37;;;;;;;0.20;0.20;;;1.90;99.90;;;;;;4960127;28;20090;-63
2021/12/06 12:07:05;;;;;;;0.00;0.00;;;1.90;99.90;;;;;;4958877;28;20051;-65
2021/12/06 12:09:37;;;;;;;0.10;0.10;;;2.00;99.90;;;;;;4960776;28;20456;-63
2021/12/06 12:12:24;;;;;;;0.00;0.00;;;2.00;99.90;;;;;;4942441;28;20066;-64
2021/12/06 12:14:57;;;;;;;0.00;0.00;;;1.90;99.90;;;;;;4942492;28;20164;-64
2021/12/06 12:17:27;;;;;;;0.00;0.00;;;2.00;99.90;;;;;;4942718;28;20522;-63
2021/12/06 12:19:55;;;;;;;0.00;0.00;;;2.00;99.90;;;;;;4941791;28;20157;-64
2021/12/06 12:22:23;;;;;;;0.00;0.00;;;2.10;99.90;;;;;;4959713;28;20058;-64
2021/12/06 12:24:54;;;;;;;0.00;0.00;;;2.10;99.90;;;;;;4959849;28;20177;-64
2021/12/06 12:30:00;;;;;;;0.00;0.00;;;2.20;99.90;;;;;;4942552;28;20761;-64
2021/12/06 12:32:27;;;;;;;0.00;0.00;;;2.10;99.90;;;;;;4959959;28;20054;-63
2021/12/06 12:34:56;;;;;;;0.32;0.32;;;2.10;99.90;;;;;;4958985;28;20379;-67
2021/12/06 12:37:23;;;;;;;0.80;0.80;;;2.30;99.90;;;;;;4959895;28;20051;-67
2021/12/06 12:40:07;;;;;;;0.88;0.80;;;2.50;99.90;;;;;;4942115;28;20046;-67
2021/12/06 12:42:33;;;;;;;1.30;0.63;;;2.60;99.90;;;;;;4958822;28;20425;-64
2021/12/06 12:45:03;;;;;;;0.00;0.00;;;2.50;99.90;;;;;;4960101;28;20042;-63
2021/12/06 12:47:31;;;;;;;0.17;0.17;;;2.60;99.90;;;;;;4942389;28;20062;-63
2021/12/06 12:50:00;;;;;;;0.00;0.00;;;2.30;99.90;;;;;;4957368;28;20105;-64
2021/12/06 12:52:41;;;;;;;0.00;0.00;;;2.20;99.90;;;;;;4959244;28;20050;-69
2021/12/06 12:55:35;;;;;;;0.65;0.65;;;2.20;99.90;;;;;;4942112;28;20080;-70
2021/12/06 12:58:24;;;;;;;0.00;0.00;;;2.20;99.90;;;;;;4942351;28;20063;-69
2021/12/06 13:00:54;;;;;;;0.32;0.30;;;2.20;99.90;;;;;;4942580;28;20086;-70
2021/12/06 13:03:43;;;;;;;4.80;1.65;;;2.20;99.90;;;;;;4936024;28;20852;-70
2021/12/06 13:06:36;;;;;;;0.20;0.20;;;2.20;99.90;;;;;;4940990;28;20081;-70
2021/12/06 13:09:04;;;;;;;0.15;0.13;;;2.20;99.90;;;;;;4946168;28;20105;-70
2021/12/06 13:12:02;;;;;;;0.22;0.22;;;2.20;99.90;;;;;;4945940;28;20146;-70
2021/12/06 13:14:33;;;;;;;0.10;0.10;;;2.20;99.90;;;;;;4941933;28;20177;-70
2021/12/06 13:17:06;;;;;;;0.00;0.00;;;2.30;99.90;;;;;;4946656;28;20062;-70
2021/12/06 13:22:18;;;;;;;0.00;0.00;;;2.30;99.90;;;;;;4944325;28;20073;-70